sensor_id;sensor_type;location;lat;lon;timestamp;pressure;altitude;pressure_sealevel;temperature;humidity
18500;BME280;9379;52.134;11.576;2023-01-10T00:00:04;100169.63;;;9.01;97.50
18500;BME280;9379;52.134;11.576;2023-01-10T00:02:31;100175.59;;;8.84;97.83
18500;BME280;9379;52.134;11.576;2023-01-10T00:04:57;100178.81;;;8.97;97.78
18500;BME280;9379;52.134;11.576;2023-01-10T00:07:24;100160.56;;;8.94;97.71
18500;BME280;9379;52.134;11.576;2023-01-10T00:09:51;100194.19;;;9.03;97.89
18500;BME280;9379;52.134;11.576;2023-01-10T00:12:18;100190.47;;;8.75;99.23
18500;BME280;9379;52.134;11.576;2023-01-10T00:15:04;100196.38;;;8.88;99.82
18500;BME280;9379;52.134;11.576;2023-01-10T00:17:31;100199.88;;;8.98;100.00
18500;BME280;9379;52.134;11.576;2023-01-10T00:19:58;100194.16;;;8.93;100.00
18500;BME280;9379;52.134;11.576;2023-01-10T00:22:25;100204.91;;;9.01;99.18
18500;BME280;9379;52.134;11.576;2023-01-10T00:24:51;100212.63;;;9.14;99.05
18500;BME280;9379;52.134;11.576;2023-01-10T00:27:18;100217.91;;;9.04;98.82
18500;BME280;9379;52.134;11.576;2023-01-10T00:29:48;100214.47;;;9.23;97.80
18500;BME280;9379;52.134;11.576;2023-01-10T00:32:18;100217.66;;;9.07;97.75
18500;BME280;9379;52.134;11.576;2023-01-10T00:34:45;100230.78;;;9.19;97.94
18500;BME280;9379;52.134;11.576;2023-01-10T00:37:12;100239.88;;;9.35;96.70
18500;BME280;9379;52.134;11.576;2023-01-10T00:39:42;100243.38;;;9.26;96.51
18500;BME280;9379;52.134;11.576;2023-01-10T00:42:09;100254.56;;;9.40;95.78
18500;BME280;9379;52.134;11.576;2023-01-10T00:44:54;100249.31;;;9.09;95.84
18500;BME280;9379;52.134;11.576;2023-01-10T00:47:22;100255.69;;;8.97;96.34
18500;BME280;9379;52.134;11.576;2023-01-10T00:49:48;100262.16;;;9.04;95.86
18500;BME280;9379;52.134;11.576;2023-01-10T00:52:15;100270.19;;;9.02;96.14
18500;BME280;9379;52.134;11.576;2023-01-10T00:54:42;100277.53;;;8.89;96.40
18500;BME280;9379;52.134;11.576;2023-01-10T00:57:09;100273.03;;;9.11;95.29
18500;BME280;9379;52.134;11.576;2023-01-10T00:59:35;100276.19;;;9.35;94.90
18500;BME280;9379;52.134;11.576;2023-01-10T01:02:02;100271.34;;;8.69;96.55
18500;BME280;9379;52.134;11.576;2023-01-10T01:04:31;100282.13;;;9.18;95.90
18500;BME280;9379;52.134;11.576;2023-01-10T01:06:59;100286.84;;;9.14;95.25
18500;BME280;9379;52.134;11.576;2023-01-10T01:09:26;100302.00;;;9.02;95.64
18500;BME280;9379;52.134;11.576;2023-01-10T01:11:53;100306.06;;;8.76;96.96
18500;BME280;9379;52.134;11.576;2023-01-10T01:14:20;100313.81;;;8.89;96.60
18500;BME280;9379;52.134;11.576;2023-01-10T01:16:47;100311.41;;;9.06;95.92
18500;BME280;9379;52.134;11.576;2023-01-10T01:19:14;100314.34;;;9.13;94.77
18500;BME280;9379;52.134;11.576;2023-01-10T01:21:42;100321.63;;;9.21;94.74
18500;BME280;9379;52.134;11.576;2023-01-10T01:24:09;100334.16;;;9.40;93.28
18500;BME280;9379;52.134;11.576;2023-01-10T01:26:36;100336.56;;;9.22;93.86
18500;BME280;9379;52.134;11.576;2023-01-10T01:29:04;100335.03;;;9.50;93.19
18500;BME280;9379;52.134;11.576;2023-01-10T01:31:30;100350.66;;;9.53;92.84
18500;BME280;9379;52.134;11.576;2023-01-10T01:33:57;100334.19;;;9.19;93.21
18500;BME280;9379;52.134;11.576;2023-01-10T01:36:24;100362.72;;;9.36;93.45
18500;BME280;9379;52.134;11.576;2023-01-10T01:38:52;100357.34;;;9.57;92.93
18500;BME280;9379;52.134;11.576;2023-01-10T01:41:19;100370.97;;;9.73;91.74
18500;BME280;9379;52.134;11.576;2023-01-10T01:44:05;100360.53;;;9.41;92.03
18500;BME280;9379;52.134;11.576;2023-01-10T01:46:35;100374.31;;;9.75;90.91
18500;BME280;9379;52.134;11.576;2023-01-10T01:49:03;100372.16;;;9.59;91.91
18500;BME280;9379;52.134;11.576;2023-01-10T01:51:32;100374.72;;;9.61;91.05
18500;BME280;9379;52.134;11.576;2023-01-10T01:54:04;100369.50;;;9.59;91.18
18500;BME280;9379;52.134;11.576;2023-01-10T01:56:35;100382.16;;;9.46;91.41
18500;BME280;9379;52.134;11.576;2023-01-10T01:59:10;100390.69;;;9.40;91.96
18500;BME280;9379;52.134;11.576;2023-01-10T02:01:39;100398.13;;;9.25;92.73
18500;BME280;9379;52.134;11.576;2023-01-10T02:04:09;100374.69;;;9.00;92.89
18500;BME280;9379;52.134;11.576;2023-01-10T02:06:37;100405.59;;;9.11;93.27
18500;BME280;9379;52.134;11.576;2023-01-10T02:09:11;100409.47;;;9.06;94.48
18500;BME280;9379;52.134;11.576;2023-01-10T02:11:41;100408.63;;;9.06;94.21
18500;BME280;9379;52.134;11.576;2023-01-10T02:14:09;100408.56;;;9.17;94.07
18500;BME280;9379;52.134;11.576;2023-01-10T02:16:36;100405.00;;;9.07;93.80
18500;BME280;9379;52.134;11.576;2023-01-10T02:19:15;100406.53;;;9.30;93.42
18500;BME280;9379;52.134;11.576;2023-01-10T02:22:10;100413.59;;;9.20;93.42
18500;BME280;9379;52.134;11.576;2023-01-10T02:28:00;100421.97;;;9.46;92.84
18500;BME280;9379;52.134;11.576;2023-01-10T02:30:46;100429.78;;;9.48;93.19
18500;BME280;9379;52.134;11.576;2023-01-10T02:33:25;100417.41;;;9.27;93.73
18500;BME280;9379;52.134;11.576;2023-01-10T02:36:04;100422.72;;;9.27;93.40
18500;BME280;9379;52.134;11.576;2023-01-10T02:38:48;100443.28;;;9.14;94.27
18500;BME280;9379;52.134;11.576;2023-01-10T02:41:22;100439.88;;;9.54;92.67
18500;BME280;9379;52.134;11.576;2023-01-10T02:43:54;100439.19;;;9.52;92.67
18500;BME280;9379;52.134;11.576;2023-01-10T02:46:26;100456.22;;;9.59;92.29
18500;BME280;9379;52.134;11.576;2023-01-10T02:48:56;100452.34;;;9.63;91.64
18500;BME280;9379;52.134;11.576;2023-01-10T02:51:24;100456.22;;;9.59;91.88
18500;BME280;9379;52.134;11.576;2023-01-10T02:53:56;100462.69;;;9.66;91.64
18500;BME280;9379;52.134;11.576;2023-01-10T02:57:01;100464.03;;;9.51;92.24
18500;BME280;9379;52.134;11.576;2023-01-10T03:02:48;100474.72;;;9.70;90.94
18500;BME280;9379;52.134;11.576;2023-01-10T03:05:28;100480.47;;;9.75;91.29
18500;BME280;9379;52.134;11.576;2023-01-10T03:08:00;100486.09;;;9.82;90.83
18500;BME280;9379;52.134;11.576;2023-01-10T03:10:36;100486.09;;;9.51;91.69
18500;BME280;9379;52.134;11.576;2023-01-10T03:13:09;100480.38;;;9.35;92.02
18500;BME280;9379;52.134;11.576;2023-01-10T03:15:39;100496.38;;;9.24;93.16
18500;BME280;9379;52.134;11.576;2023-01-10T03:18:11;100492.75;;;9.46;91.92
18500;BME280;9379;52.134;11.576;2023-01-10T03:20:43;100504.88;;;9.39;92.54
18500;BME280;9379;52.134;11.576;2023-01-10T03:23:13;100498.25;;;9.33;92.06
18500;BME280;9379;52.134;11.576;2023-01-10T03:25:42;100513.59;;;9.29;92.47
18500;BME280;9379;52.134;11.576;2023-01-10T03:28:13;100506.72;;;9.06;92.65
18500;BME280;9379;52.134;11.576;2023-01-10T03:30:44;100511.19;;;9.47;91.92
18500;BME280;9379;52.134;11.576;2023-01-10T03:33:17;100518.28;;;9.47;91.27
18500;BME280;9379;52.134;11.576;2023-01-10T03:35:55;100532.66;;;9.23;92.46
18500;BME280;9379;52.134;11.576;2023-01-10T03:38:29;100532.94;;;8.88;94.15
18500;BME280;9379;52.134;11.576;2023-01-10T03:41:05;100543.22;;;9.02;93.98
18500;BME280;9379;52.134;11.576;2023-01-10T03:43:39;100542.56;;;9.21;93.10
18500;BME280;9379;52.134;11.576;2023-01-10T03:46:31;100546.66;;;9.14;93.77
18500;BME280;9379;52.134;11.576;2023-01-10T03:49:03;100550.06;;;9.16;93.29
18500;BME280;9379;52.134;11.576;2023-01-10T03:51:32;100550.50;;;8.89;93.68
18500;BME280;9379;52.134;11.576;2023-01-10T03:54:02;100543.47;;;9.31;93.42
18500;BME280;9379;52.134;11.576;2023-01-10T03:56:29;100565.13;;;9.36;92.30
18500;BME280;9379;52.134;11.576;2023-01-10T03:58:56;100563.31;;;9.16;93.33
18500;BME280;9379;52.134;11.576;2023-01-10T04:01:23;100550.47;;;9.00;93.48
18500;BME280;9379;52.134;11.576;2023-01-10T04:03:51;100576.50;;;9.06;93.40
18500;BME280;9379;52.134;11.576;2023-01-10T04:06:18;100579.13;;;9.06;93.87
18500;BME280;9379;52.134;11.576;2023-01-10T04:08:46;100585.19;;;8.97;93.84
18500;BME280;9379;52.134;11.576;2023-01-10T04:11:13;100580.31;;;9.14;92.88
18500;BME280;9379;52.134;11.576;2023-01-10T04:13:40;100593.41;;;9.26;92.60
18500;BME280;9379;52.134;11.576;2023-01-10T04:16:07;100600.66;;;9.13;93.73
18500;BME280;9379;52.134;11.576;2023-01-10T04:18:34;100607.38;;;9.28;92.68
18500;BME280;9379;52.134;11.576;2023-01-10T04:21:03;100603.88;;;9.28;92.11
18500;BME280;9379;52.134;11.576;2023-01-10T04:23:30;100602.47;;;9.13;91.96
18500;BME280;9379;52.134;11.576;2023-01-10T04:25:58;100625.75;;;9.09;93.35
18500;BME280;9379;52.134;11.576;2023-01-10T04:28:25;100621.59;;;8.84;94.44
18500;BME280;9379;52.134;11.576;2023-01-10T04:30:52;100622.50;;;9.17;93.62
18500;BME280;9379;52.134;11.576;2023-01-10T04:33:18;100615.00;;;9.22;92.69
18500;BME280;9379;52.134;11.576;2023-01-10T04:35:49;100623.09;;;9.09;92.89
18500;BME280;9379;52.134;11.576;2023-01-10T04:38:16;100641.22;;;9.36;92.48
18500;BME280;9379;52.134;11.576;2023-01-10T04:40:43;100643.63;;;9.39;91.37
18500;BME280;9379;52.134;11.576;2023-01-10T04:43:11;100661.69;;;9.02;92.84
18500;BME280;9379;52.134;11.576;2023-01-10T04:45:38;100656.84;;;9.07;93.38
18500;BME280;9379;52.134;11.576;2023-01-10T04:48:05;100660.09;;;9.11;92.81
18500;BME280;9379;52.134;11.576;2023-01-10T04:50:32;100663.22;;;9.27;92.80
18500;BME280;9379;52.134;11.576;2023-01-10T04:52:58;100669.22;;;9.29;91.87
18500;BME280;9379;52.134;11.576;2023-01-10T04:55:25;100676.91;;;9.32;92.12
18500;BME280;9379;52.134;11.576;2023-01-10T04:57:52;100683.91;;;9.33;92.04
18500;BME280;9379;52.134;11.576;2023-01-10T05:00:20;100674.31;;;9.10;92.83
18500;BME280;9379;52.134;11.576;2023-01-10T05:02:47;100682.28;;;9.10;92.39
18500;BME280;9379;52.134;11.576;2023-01-10T05:05:14;100692.38;;;9.27;92.67
18500;BME280;9379;52.134;11.576;2023-01-10T05:07:40;100686.47;;;9.23;92.02
18500;BME280;9379;52.134;11.576;2023-01-10T05:10:10;100688.41;;;9.21;92.24
18500;BME280;9379;52.134;11.576;2023-01-10T05:12:37;100688.75;;;9.28;91.78
18500;BME280;9379;52.134;11.576;2023-01-10T05:15:05;100688.25;;;9.23;91.54
18500;BME280;9379;52.134;11.576;2023-01-10T05:17:33;100692.63;;;9.13;91.85
18500;BME280;9379;52.134;11.576;2023-01-10T05:20:00;100706.03;;;8.89;92.90
18500;BME280;9379;52.134;11.576;2023-01-10T05:22:27;100707.66;;;9.23;91.84
18500;BME280;9379;52.134;11.576;2023-01-10T05:24:53;100718.75;;;9.28;91.58
18500;BME280;9379;52.134;11.576;2023-01-10T05:27:20;100728.78;;;9.14;92.24
18500;BME280;9379;52.134;11.576;2023-01-10T05:29:47;100735.44;;;8.97;92.61
18500;BME280;9379;52.134;11.576;2023-01-10T05:32:14;100731.91;;;9.19;92.01
18500;BME280;9379;52.134;11.576;2023-01-10T05:34:42;100734.47;;;8.64;93.14
18500;BME280;9379;52.134;11.576;2023-01-10T05:37:08;100736.78;;;8.80;93.26
18500;BME280;9379;52.134;11.576;2023-01-10T05:39:35;100741.97;;;8.82;93.47
18500;BME280;9379;52.134;11.576;2023-01-10T05:42:04;100748.22;;;8.92;92.89
18500;BME280;9379;52.134;11.576;2023-01-10T05:44:31;100758.81;;;9.03;92.95
18500;BME280;9379;52.134;11.576;2023-01-10T05:46:57;100757.72;;;8.83;93.96
18500;BME280;9379;52.134;11.576;2023-01-10T05:49:24;100755.69;;;8.75;94.95
18500;BME280;9379;52.134;11.576;2023-01-10T05:51:52;100754.47;;;8.68;95.57
18500;BME280;9379;52.134;11.576;2023-01-10T05:54:19;100772.28;;;8.66;95.52
18500;BME280;9379;52.134;11.576;2023-01-10T05:56:46;100769.88;;;8.63;96.15
18500;BME280;9379;52.134;11.576;2023-01-10T05:59:12;100778.94;;;8.83;95.88
18500;BME280;9379;52.134;11.576;2023-01-10T06:01:39;100787.97;;;8.81;94.90
18500;BME280;9379;52.134;11.576;2023-01-10T06:04:06;100793.88;;;8.95;94.65
18500;BME280;9379;52.134;11.576;2023-01-10T06:06:33;100803.97;;;9.13;93.59
18500;BME280;9379;52.134;11.576;2023-01-10T06:09:03;100818.59;;;9.18;92.80
18500;BME280;9379;52.134;11.576;2023-01-10T06:11:30;100823.38;;;9.35;92.47
18500;BME280;9379;52.134;11.576;2023-01-10T06:14:00;100831.22;;;9.26;92.89
18500;BME280;9379;52.134;11.576;2023-01-10T06:16:27;100838.09;;;9.40;93.26
18500;BME280;9379;52.134;11.576;2023-01-10T06:18:54;100828.91;;;9.55;91.85
18500;BME280;9379;52.134;11.576;2023-01-10T06:21:21;100841.19;;;9.67;91.53
18500;BME280;9379;52.134;11.576;2023-01-10T06:23:48;100849.44;;;9.53;91.41
18500;BME280;9379;52.134;11.576;2023-01-10T06:26:16;100848.00;;;9.26;92.72
18500;BME280;9379;52.134;11.576;2023-01-10T06:28:43;100841.59;;;9.40;92.77
18500;BME280;9379;52.134;11.576;2023-01-10T06:31:10;100857.84;;;9.58;92.01
18500;BME280;9379;52.134;11.576;2023-01-10T06:33:39;100864.94;;;9.69;92.12
18500;BME280;9379;52.134;11.576;2023-01-10T06:36:06;100870.13;;;9.81;91.57
18500;BME280;9379;52.134;11.576;2023-01-10T06:38:33;100869.94;;;9.40;93.51
18500;BME280;9379;52.134;11.576;2023-01-10T06:41:00;100875.47;;;9.48;92.84
18500;BME280;9379;52.134;11.576;2023-01-10T06:43:38;100874.72;;;9.68;92.38
18500;BME280;9379;52.134;11.576;2023-01-10T06:46:05;100881.94;;;9.77;92.02
18500;BME280;9379;52.134;11.576;2023-01-10T06:48:34;100884.13;;;9.72;92.81
18500;BME280;9379;52.134;11.576;2023-01-10T06:51:01;100896.31;;;9.86;91.72
18500;BME280;9379;52.134;11.576;2023-01-10T06:53:28;100911.25;;;9.87;90.90
18500;BME280;9379;52.134;11.576;2023-01-10T06:55:55;100910.56;;;9.85;91.44
18500;BME280;9379;52.134;11.576;2023-01-10T06:58:22;100916.94;;;9.60;92.62
18500;BME280;9379;52.134;11.576;2023-01-10T07:00:50;100921.88;;;9.20;94.71
18500;BME280;9379;52.134;11.576;2023-01-10T07:03:17;100918.34;;;8.97;96.55
18500;BME280;9379;52.134;11.576;2023-01-10T07:05:44;100933.66;;;8.93;97.17
18500;BME280;9379;52.134;11.576;2023-01-10T07:08:11;100936.00;;;9.43;94.29
18500;BME280;9379;52.134;11.576;2023-01-10T07:10:39;100939.66;;;8.95;95.76
18500;BME280;9379;52.134;11.576;2023-01-10T07:13:06;100945.28;;;9.37;94.02
18500;BME280;9379;52.134;11.576;2023-01-10T07:15:33;100952.31;;;9.49;93.37
18500;BME280;9379;52.134;11.576;2023-01-10T07:18:02;100944.94;;;9.42;92.88
18500;BME280;9379;52.134;11.576;2023-01-10T07:20:29;100961.59;;;9.66;92.71
18500;BME280;9379;52.134;11.576;2023-01-10T07:22:56;100964.38;;;9.76;92.10
18500;BME280;9379;52.134;11.576;2023-01-10T07:25:24;100969.50;;;9.32;93.70
18500;BME280;9379;52.134;11.576;2023-01-10T07:27:51;100972.06;;;9.45;92.45
18500;BME280;9379;52.134;11.576;2023-01-10T07:30:20;100977.25;;;9.69;91.48
18500;BME280;9379;52.134;11.576;2023-01-10T07:32:52;100978.22;;;9.90;90.38
18500;BME280;9379;52.134;11.576;2023-01-10T07:35:20;100977.63;;;9.76;90.21
18500;BME280;9379;52.134;11.576;2023-01-10T07:37:47;100988.47;;;9.95;89.66
18500;BME280;9379;52.134;11.576;2023-01-10T07:40:15;100986.06;;;9.92;89.88
18500;BME280;9379;52.134;11.576;2023-01-10T07:42:42;100995.50;;;9.74;90.06
18500;BME280;9379;52.134;11.576;2023-01-10T07:45:10;100993.31;;;9.68;90.27
18500;BME280;9379;52.134;11.576;2023-01-10T07:47:37;100994.63;;;9.51;90.40
18500;BME280;9379;52.134;11.576;2023-01-10T07:50:05;101003.91;;;9.56;90.32
18500;BME280;9379;52.134;11.576;2023-01-10T07:52:33;101009.06;;;9.47;90.61
18500;BME280;9379;52.134;11.576;2023-01-10T07:55:00;101013.56;;;9.57;90.13
18500;BME280;9379;52.134;11.576;2023-01-10T07:57:26;101027.47;;;9.26;91.15
18500;BME280;9379;52.134;11.576;2023-01-10T07:59:53;101034.97;;;9.32;91.34
18500;BME280;9379;52.134;11.576;2023-01-10T08:02:20;101043.22;;;9.40;90.70
18500;BME280;9379;52.134;11.576;2023-01-10T08:04:47;101032.84;;;9.48;90.61
18500;BME280;9379;52.134;11.576;2023-01-10T08:07:14;101038.06;;;9.72;89.83
18500;BME280;9379;52.134;11.576;2023-01-10T08:09:42;101043.47;;;9.71;90.65
18500;BME280;9379;52.134;11.576;2023-01-10T08:12:09;101052.75;;;9.07;93.11
18500;BME280;9379;52.134;11.576;2023-01-10T08:14:35;101051.84;;;8.72;94.82
18500;BME280;9379;52.134;11.576;2023-01-10T08:17:02;101059.66;;;8.50;95.36
18500;BME280;9379;52.134;11.576;2023-01-10T08:19:29;101064.84;;;9.23;93.57
18500;BME280;9379;52.134;11.576;2023-01-10T08:21:56;101059.94;;;9.29;92.68
18500;BME280;9379;52.134;11.576;2023-01-10T08:24:22;101048.81;;;9.24;92.42
18500;BME280;9379;52.134;11.576;2023-01-10T08:26:51;101062.09;;;8.76;94.14
18500;BME280;9379;52.134;11.576;2023-01-10T08:29:17;101067.63;;;9.21;92.90
18500;BME280;9379;52.134;11.576;2023-01-10T08:31:44;101059.38;;;9.48;91.98
18500;BME280;9379;52.134;11.576;2023-01-10T08:34:11;101066.16;;;9.52;91.02
18500;BME280;9379;52.134;11.576;2023-01-10T08:36:38;101079.88;;;9.46;90.75
18500;BME280;9379;52.134;11.576;2023-01-10T08:39:05;101082.06;;;9.52;91.09
18500;BME280;9379;52.134;11.576;2023-01-10T08:41:32;101084.56;;;9.43;90.50
18500;BME280;9379;52.134;11.576;2023-01-10T08:44:00;101082.81;;;9.65;90.81
18500;BME280;9379;52.134;11.576;2023-01-10T08:46:27;101079.59;;;9.84;89.98
18500;BME280;9379;52.134;11.576;2023-01-10T08:48:54;101082.50;;;9.92;89.99
18500;BME280;9379;52.134;11.576;2023-01-10T08:51:21;101084.44;;;9.44;90.65
18500;BME280;9379;52.134;11.576;2023-01-10T08:53:47;101093.94;;;9.35;92.20
18500;BME280;9379;52.134;11.576;2023-01-10T08:56:14;101090.53;;;9.69;91.02
18500;BME280;9379;52.134;11.576;2023-01-10T08:58:41;101094.66;;;9.61;89.88
18500;BME280;9379;52.134;11.576;2023-01-10T09:01:09;101088.75;;;9.80;89.55
18500;BME280;9379;52.134;11.576;2023-01-10T09:03:38;101092.97;;;9.83;89.18
18500;BME280;9379;52.134;11.576;2023-01-10T09:06:06;101095.41;;;9.75;89.44
18500;BME280;9379;52.134;11.576;2023-01-10T09:08:33;101090.56;;;9.91;88.87
18500;BME280;9379;52.134;11.576;2023-01-10T09:11:01;101107.34;;;9.91;89.05
18500;BME280;9379;52.134;11.576;2023-01-10T09:13:28;101101.22;;;10.02;87.95
18500;BME280;9379;52.134;11.576;2023-01-10T09:15:56;101108.69;;;9.86;88.62
18500;BME280;9379;52.134;11.576;2023-01-10T09:18:25;101094.91;;;9.81;88.75
18500;BME280;9379;52.134;11.576;2023-01-10T09:20:52;101101.91;;;9.93;88.53
18500;BME280;9379;52.134;11.576;2023-01-10T09:23:21;101101.78;;;9.94;88.86
18500;BME280;9379;52.134;11.576;2023-01-10T09:25:50;101118.09;;;10.01;88.09
18500;BME280;9379;52.134;11.576;2023-01-10T09:28:18;101107.63;;;10.00;87.85
18500;BME280;9379;52.134;11.576;2023-01-10T09:30:45;101114.97;;;9.96;87.99
18500;BME280;9379;52.134;11.576;2023-01-10T09:33:13;101114.84;;;9.86;88.51
18500;BME280;9379;52.134;11.576;2023-01-10T09:35:42;101129.16;;;9.84;88.95
18500;BME280;9379;52.134;11.576;2023-01-10T09:38:10;101134.19;;;9.53;89.87
18500;BME280;9379;52.134;11.576;2023-01-10T09:40:52;101123.63;;;9.76;89.63
18500;BME280;9379;52.134;11.576;2023-01-10T09:43:29;101138.09;;;9.83;89.32
18500;BME280;9379;52.134;11.576;2023-01-10T09:46:03;101142.00;;;9.90;89.10
18500;BME280;9379;52.134;11.576;2023-01-10T09:48:39;101147.56;;;9.98;88.43
18500;BME280;9379;52.134;11.576;2023-01-10T09:51:18;101156.00;;;9.92;88.96
18500;BME280;9379;52.134;11.576;2023-01-10T09:53:51;101159.84;;;9.88;88.81
18500;BME280;9379;52.134;11.576;2023-01-10T09:56:20;101163.53;;;10.09;88.30
18500;BME280;9379;52.134;11.576;2023-01-10T09:58:48;101169.50;;;9.89;89.20
18500;BME280;9379;52.134;11.576;2023-01-10T10:01:17;101160.31;;;9.82;89.89
18500;BME280;9379;52.134;11.576;2023-01-10T10:03:50;101156.72;;;10.05;89.28
18500;BME280;9379;52.134;11.576;2023-01-10T10:06:21;101138.16;;;10.05;89.17
18500;BME280;9379;52.134;11.576;2023-01-10T10:08:49;101142.06;;;10.35;87.79
18500;BME280;9379;52.134;11.576;2023-01-10T10:11:34;101137.34;;;10.27;88.11
18500;BME280;9379;52.134;11.576;2023-01-10T10:14:10;101141.94;;;10.47;87.16
18500;BME280;9379;52.134;11.576;2023-01-10T10:16:53;101153.88;;;10.08;88.10
18500;BME280;9379;52.134;11.576;2023-01-10T10:19:26;101144.09;;;10.65;87.93
18500;BME280;9379;52.134;11.576;2023-01-10T10:22:05;101148.97;;;10.37;87.68
18500;BME280;9379;52.134;11.576;2023-01-10T10:24:47;101140.59;;;10.53;86.19
18500;BME280;9379;52.134;11.576;2023-01-10T10:27:22;101146.25;;;10.15;87.39
18500;BME280;9379;52.134;11.576;2023-01-10T10:30:21;101144.81;;;10.11;88.80
18500;BME280;9379;52.134;11.576;2023-01-10T10:33:15;101146.66;;;10.44;87.79
18500;BME280;9379;52.134;11.576;2023-01-10T10:35:51;101152.81;;;9.76;90.33
18500;BME280;9379;52.134;11.576;2023-01-10T10:38:23;101150.38;;;10.64;87.57
18500;BME280;9379;52.134;11.576;2023-01-10T10:40:57;101144.22;;;10.30;88.04
18500;BME280;9379;52.134;11.576;2023-01-10T10:43:30;101136.63;;;10.70;87.39
18500;BME280;9379;52.134;11.576;2023-01-10T10:46:01;101162.22;;;10.82;86.17
18500;BME280;9379;52.134;11.576;2023-01-10T10:48:31;101161.94;;;10.96;84.75
18500;BME280;9379;52.134;11.576;2023-01-10T10:51:05;101169.75;;;10.55;86.24
18500;BME280;9379;52.134;11.576;2023-01-10T10:53:34;101167.53;;;10.82;85.77
18500;BME280;9379;52.134;11.576;2023-01-10T10:56:03;101165.63;;;9.93;87.59
18500;BME280;9379;52.134;11.576;2023-01-10T10:58:31;101170.69;;;10.31;88.15
18500;BME280;9379;52.134;11.576;2023-01-10T11:00:58;101167.69;;;10.36;87.67
18500;BME280;9379;52.134;11.576;2023-01-10T11:03:30;101163.47;;;10.67;86.92
18500;BME280;9379;52.134;11.576;2023-01-10T11:05:59;101159.56;;;10.82;85.32
18500;BME280;9379;52.134;11.576;2023-01-10T11:08:27;101161.34;;;10.93;84.10
18500;BME280;9379;52.134;11.576;2023-01-10T11:10:57;101153.50;;;10.91;84.96
18500;BME280;9379;52.134;11.576;2023-01-10T11:13:43;101165.00;;;10.80;85.84
18500;BME280;9379;52.134;11.576;2023-01-10T11:16:26;101153.59;;;11.12;83.86
18500;BME280;9379;52.134;11.576;2023-01-10T11:19:14;101164.91;;;10.37;86.22
18500;BME280;9379;52.134;11.576;2023-01-10T11:21:45;101166.94;;;10.22;87.28
18500;BME280;9379;52.134;11.576;2023-01-10T11:24:25;101169.75;;;10.66;84.83
18500;BME280;9379;52.134;11.576;2023-01-10T11:26:54;101156.94;;;10.60;84.82
18500;BME280;9379;52.134;11.576;2023-01-10T11:29:24;101160.94;;;10.65;85.16
18500;BME280;9379;52.134;11.576;2023-01-10T11:31:53;101173.22;;;10.89;85.09
18500;BME280;9379;52.134;11.576;2023-01-10T11:34:23;101165.00;;;10.69;85.79
18500;BME280;9379;52.134;11.576;2023-01-10T11:36:52;101165.63;;;10.62;86.05
18500;BME280;9379;52.134;11.576;2023-01-10T11:39:20;101166.00;;;10.35;86.90
18500;BME280;9379;52.134;11.576;2023-01-10T11:41:47;101159.81;;;10.68;86.44
18500;BME280;9379;52.134;11.576;2023-01-10T11:44:21;101169.34;;;10.81;84.59
18500;BME280;9379;52.134;11.576;2023-01-10T11:46:53;101178.78;;;10.74;84.87
18500;BME280;9379;52.134;11.576;2023-01-10T11:49:26;101192.31;;;10.71;86.26
18500;BME280;9379;52.134;11.576;2023-01-10T11:51:58;101191.00;;;10.66;86.63
18500;BME280;9379;52.134;11.576;2023-01-10T11:54:27;101186.63;;;10.87;85.31
18500;BME280;9379;52.134;11.576;2023-01-10T11:56:57;101179.25;;;10.91;84.45
18500;BME280;9379;52.134;11.576;2023-01-10T11:59:26;101189.31;;;10.54;86.36
18500;BME280;9379;52.134;11.576;2023-01-10T12:01:56;101198.53;;;10.14;87.98
18500;BME280;9379;52.134;11.576;2023-01-10T12:04:26;101185.06;;;10.51;87.54
18500;BME280;9379;52.134;11.576;2023-01-10T12:06:57;101181.44;;;10.63;86.77
18500;BME280;9379;52.134;11.576;2023-01-10T12:09:37;101179.28;;;10.79;84.18
18500;BME280;9379;52.134;11.576;2023-01-10T12:12:13;101189.91;;;10.79;84.59
18500;BME280;9379;52.134;11.576;2023-01-10T12:14:42;101184.72;;;10.89;83.56
18500;BME280;9379;52.134;11.576;2023-01-10T12:17:19;101181.81;;;10.59;84.93
18500;BME280;9379;52.134;11.576;2023-01-10T12:19:47;101168.59;;;11.02;83.14
18500;BME280;9379;52.134;11.576;2023-01-10T12:22:14;101186.16;;;10.82;83.80
18500;BME280;9379;52.134;11.576;2023-01-10T12:24:43;101191.47;;;10.82;82.88
18500;BME280;9379;52.134;11.576;2023-01-10T12:27:14;101181.19;;;11.00;82.19
18500;BME280;9379;52.134;11.576;2023-01-10T12:29:55;101179.59;;;10.86;82.75
18500;BME280;9379;52.134;11.576;2023-01-10T12:32:29;101200.88;;;10.97;82.88
18500;BME280;9379;52.134;11.576;2023-01-10T12:35:01;101192.31;;;10.94;82.42
18500;BME280;9379;52.134;11.576;2023-01-10T12:37:33;101199.50;;;11.25;82.74
18500;BME280;9379;52.134;11.576;2023-01-10T12:40:10;101202.22;;;10.80;84.23
18500;BME280;9379;52.134;11.576;2023-01-10T12:42:48;101203.50;;;11.08;83.68
18500;BME280;9379;52.134;11.576;2023-01-10T12:45:39;101197.81;;;11.24;82.70
18500;BME280;9379;52.134;11.576;2023-01-10T12:48:14;101200.84;;;11.08;83.87
18500;BME280;9379;52.134;11.576;2023-01-10T12:50:44;101194.19;;;11.25;83.02
18500;BME280;9379;52.134;11.576;2023-01-10T12:53:23;101193.03;;;11.39;82.02
18500;BME280;9379;52.134;11.576;2023-01-10T12:55:52;101187.69;;;11.50;82.06
18500;BME280;9379;52.134;11.576;2023-01-10T12:58:25;101196.91;;;11.67;81.54
18500;BME280;9379;52.134;11.576;2023-01-10T13:00:58;101191.41;;;11.16;82.53
18500;BME280;9379;52.134;11.576;2023-01-10T13:03:27;101202.66;;;11.19;82.98
18500;BME280;9379;52.134;11.576;2023-01-10T13:05:56;101206.06;;;10.99;82.48
18500;BME280;9379;52.134;11.576;2023-01-10T13:08:25;101215.88;;;10.87;82.72
18500;BME280;9379;52.134;11.576;2023-01-10T13:10:54;101213.72;;;10.81;83.62
18500;BME280;9379;52.134;11.576;2023-01-10T13:13:30;101222.41;;;10.83;84.56
18500;BME280;9379;52.134;11.576;2023-01-10T13:16:10;101226.56;;;9.83;88.09
18500;BME280;9379;52.134;11.576;2023-01-10T13:18:57;101226.84;;;10.38;86.01